createdAt,value
2023-02-14T00:01:52.008Z,100.00
2023-02-14T00:04:20.347Z,100.00
2023-02-14T07:16:18.301Z,100.00
2023-02-14T07:18:52.807Z,100.00
2023-02-14T07:21:21.132Z,100.00
2023-02-14T07:23:50.319Z,100.00
2023-02-14T07:26:24.498Z,100.00
2023-02-14T07:31:40.716Z,100.00
2023-02-14T07:34:09.332Z,100.00
2023-02-14T07:36:39.136Z,100.00
2023-02-14T07:39:07.488Z,100.00
2023-02-14T07:41:39.905Z,100.00
2023-02-14T07:44:11.771Z,100.00
2023-02-14T07:46:41.396Z,100.00
2023-02-14T07:49:09.838Z,100.00
2023-02-14T07:51:39.301Z,100.00
2023-02-14T07:54:08.232Z,100.00
2023-02-14T07:56:37.327Z,100.00
2023-02-14T07:59:09.386Z,100.00
2023-02-14T08:01:40.311Z,100.00
2023-02-14T08:04:14.114Z,100.00
2023-02-14T08:07:11.154Z,100.00
2023-02-14T08:09:39.621Z,100.00
2023-02-14T08:12:28.676Z,100.00
2023-02-14T08:15:21.187Z,100.00
2023-02-14T08:17:51.750Z,100.00
2023-02-14T08:20:20.722Z,100.00
2023-02-14T08:22:49.473Z,100.00
2023-02-14T08:25:19.793Z,100.00
2023-02-14T08:27:48.277Z,100.00
2023-02-14T08:30:17.209Z,100.00
2023-02-14T08:32:45.753Z,100.00
2023-02-14T08:35:14.456Z,100.00
2023-02-14T08:37:43.410Z,100.00
2023-02-14T08:40:12.211Z,100.00
2023-02-14T08:42:41.047Z,100.00
2023-02-14T08:45:10.743Z,100.00
2023-02-14T08:47:40.480Z,100.00
2023-02-14T08:50:15.061Z,100.00
2023-02-14T08:52:48.080Z,100.00
2023-02-14T08:55:16.728Z,100.00
2023-02-14T08:57:45.249Z,100.00
2023-02-14T09:00:14.323Z,100.00
2023-02-14T09:02:52.964Z,100.00
2023-02-14T09:05:23.495Z,100.00
2023-02-14T09:07:56.020Z,100.00
2023-02-14T09:10:28.824Z,100.00
2023-02-14T09:12:57.994Z,100.00
2023-02-14T09:15:26.774Z,100.00
2023-02-14T09:17:55.751Z,100.00
2023-02-14T09:20:24.171Z,100.00
2023-02-14T09:22:55.812Z,100.00
2023-02-14T09:25:26.920Z,100.00
2023-02-14T09:27:55.428Z,100.00
2023-02-14T09:30:26.865Z,100.00
2023-02-14T09:32:55.454Z,100.00
2023-02-14T09:35:24.269Z,100.00
2023-02-14T09:38:18.516Z,100.00
2023-02-14T09:40:48.909Z,100.00
2023-02-14T09:43:20.105Z,100.00
2023-02-14T09:45:50.816Z,100.00
2023-02-14T09:48:27.211Z,99.99
2023-02-14T09:51:01.367Z,99.37
2023-02-14T09:53:32.731Z,98.61
2023-02-14T09:56:10.486Z,96.48
2023-02-14T09:58:50.719Z,95.08
2023-02-14T10:01:30.718Z,93.88
2023-02-14T10:04:24.330Z,93.78
2023-02-14T10:07:09.485Z,93.41
2023-02-14T10:09:44.301Z,92.03
2023-02-14T10:12:41.109Z,89.97
2023-02-14T10:15:41.334Z,87.77
2023-02-14T10:18:14.133Z,85.99
2023-02-14T10:20:44.782Z,83.97
2023-02-14T10:23:31.904Z,82.19
2023-02-14T10:26:01.629Z,80.91
2023-02-14T10:28:44.329Z,79.72
2023-02-14T10:31:25.344Z,77.05
2023-02-14T10:33:57.840Z,73.50
2023-02-14T10:36:40.292Z,71.42
2023-02-14T10:39:22.857Z,71.77
2023-02-14T10:42:07.081Z,71.87
2023-02-14T10:44:37.004Z,71.50
2023-02-14T10:47:50.345Z,71.24
2023-02-14T10:50:52.028Z,71.33
2023-02-14T10:53:39.890Z,72.04
2023-02-14T10:56:38.485Z,73.50
2023-02-14T10:59:54.212Z,73.79
2023-02-14T11:02:29.573Z,73.31
2023-02-14T11:04:58.695Z,72.69
2023-02-14T11:07:27.834Z,71.67
2023-02-14T11:10:09.868Z,69.02
2023-02-14T11:12:48.522Z,67.33
2023-02-14T11:16:02.019Z,67.21
2023-02-14T11:18:36.133Z,68.26
2023-02-14T11:21:39.155Z,68.74
2023-02-14T11:24:33.497Z,67.43
2023-02-14T11:27:05.237Z,66.24
2023-02-14T11:29:43.607Z,64.29
2023-02-14T11:32:26.292Z,62.24
2023-02-14T11:35:20.990Z,60.89
2023-02-14T11:38:14.452Z,59.25
2023-02-14T11:41:25.169Z,58.76
2023-02-14T11:43:54.507Z,58.12
2023-02-14T11:46:27.308Z,56.45
2023-02-14T11:49:04.064Z,54.95
2023-02-14T11:51:42.704Z,54.00
2023-02-14T11:54:29.181Z,53.50
2023-02-14T11:57:28.885Z,52.65
2023-02-14T11:59:58.262Z,52.49
2023-02-14T12:02:54.835Z,51.64
2023-02-14T12:05:49.120Z,50.18
2023-02-14T12:08:25.738Z,50.69
2023-02-14T12:11:27.781Z,50.38
2023-02-14T12:13:59.297Z,49.28
2023-02-14T12:16:35.558Z,48.92
2023-02-14T12:19:06.184Z,48.13
2023-02-14T12:22:47.268Z,47.33
2023-02-14T12:26:01.014Z,46.49
2023-02-14T12:28:38.807Z,45.81
2023-02-14T12:31:11.742Z,45.99
2023-02-14T12:33:42.145Z,46.58
2023-02-14T12:36:35.969Z,47.93
2023-02-14T12:39:26.417Z,49.38
2023-02-14T12:42:19.233Z,50.47
2023-02-14T12:45:04.454Z,49.80
2023-02-14T12:47:46.884Z,49.05
2023-02-14T12:50:36.043Z,49.05
2023-02-14T12:53:31.573Z,48.71
2023-02-14T12:56:23.982Z,48.84
2023-02-14T12:59:07.279Z,48.90
2023-02-14T13:02:00.423Z,49.66
2023-02-14T13:04:58.127Z,50.40
2023-02-14T13:12:40.276Z,52.58
2023-02-14T13:24:18.556Z,50.90
2023-02-14T13:31:24.315Z,50.36
2023-02-14T13:38:31.992Z,49.02
2023-02-14T13:45:53.978Z,47.00
2023-02-14T14:01:52.168Z,45.04
2023-02-14T14:18:37.796Z,45.60
2023-02-14T14:22:35.883Z,45.40
2023-02-14T15:28:35.683Z,55.93
2023-02-14T15:44:32.547Z,62.55
2023-02-14T20:16:11.603Z,86.36
2023-02-14T20:18:41.314Z,86.44
2023-02-14T20:21:16.876Z,86.52
2023-02-14T20:23:46.033Z,86.73
2023-02-14T20:26:14.840Z,86.87
2023-02-14T20:28:49.044Z,87.11
2023-02-14T20:31:20.789Z,87.41
2023-02-14T20:33:53.170Z,87.29
2023-02-14T20:36:21.955Z,87.52
2023-02-14T20:39:00.799Z,88.06
2023-02-14T20:41:29.570Z,88.12
2023-02-14T20:44:06.958Z,88.02
2023-02-14T20:46:35.809Z,88.27
2023-02-14T20:49:05.587Z,88.37
2023-02-14T20:51:35.275Z,88.58
2023-02-14T20:54:04.293Z,88.52
2023-02-14T20:56:32.659Z,88.63
2023-02-14T20:59:02.010Z,88.66
2023-02-14T21:01:31.091Z,88.93
2023-02-14T21:03:59.560Z,88.86
2023-02-14T21:06:30.536Z,89.41
2023-02-14T21:09:01.725Z,89.58
2023-02-14T21:11:30.474Z,89.56
2023-02-14T21:14:00.042Z,89.66
2023-02-14T21:16:29.196Z,89.64
2023-02-14T21:18:59.354Z,89.82
2023-02-14T21:21:34.892Z,89.81
2023-02-14T21:24:08.544Z,89.79
2023-02-14T21:26:37.242Z,89.98
2023-02-14T21:29:05.662Z,89.99
2023-02-14T21:31:34.443Z,90.24
2023-02-14T21:34:03.397Z,90.25
2023-02-14T21:36:33.044Z,90.01
2023-02-14T21:39:01.793Z,90.24
2023-02-14T21:41:31.136Z,89.99
2023-02-14T21:44:02.137Z,90.05
2023-02-14T21:46:32.384Z,89.99
2023-02-14T21:49:21.041Z,89.79
2023-02-14T21:51:49.455Z,89.64
2023-02-14T21:54:17.869Z,89.70
2023-02-14T21:56:46.424Z,89.66
2023-02-14T21:59:15.100Z,89.74
2023-02-14T22:01:44.160Z,89.71
2023-02-14T22:04:12.965Z,89.64
2023-02-14T22:06:41.912Z,89.60
2023-02-14T22:09:13.055Z,89.47
2023-02-14T22:11:41.857Z,89.12
2023-02-14T22:14:10.353Z,89.16
2023-02-14T22:16:39.109Z,89.05
2023-02-14T22:19:07.828Z,89.25
2023-02-14T22:21:36.292Z,89.37
2023-02-14T22:24:05.168Z,89.33
2023-02-14T22:26:38.968Z,89.33
2023-02-14T22:29:10.532Z,89.38
2023-02-14T22:31:41.007Z,89.20
2023-02-14T22:34:11.387Z,89.05
2023-02-14T22:36:39.866Z,89.08
2023-02-14T22:39:08.164Z,88.82
2023-02-14T22:41:38.001Z,88.57
2023-02-14T22:44:06.672Z,88.42
2023-02-14T22:46:39.163Z,88.50
2023-02-14T22:49:07.901Z,88.53
2023-02-14T22:51:40.573Z,88.71
2023-02-14T22:54:12.449Z,88.62
2023-02-14T22:56:45.517Z,88.66
2023-02-14T22:59:18.062Z,88.55
2023-02-14T23:01:47.124Z,88.45
2023-02-14T23:04:16.862Z,88.29
2023-02-14T23:06:45.303Z,88.33
2023-02-14T23:09:13.854Z,88.13
2023-02-14T23:11:43.475Z,88.28
2023-02-14T23:14:31.717Z,88.41
2023-02-14T23:17:18.736Z,88.53
2023-02-14T23:20:06.406Z,88.22
2023-02-14T23:22:37.179Z,88.10
2023-02-14T23:25:10.372Z,88.00
2023-02-14T23:27:44.333Z,87.98
2023-02-14T23:30:16.628Z,87.84
2023-02-14T23:32:45.417Z,88.06
2023-02-14T23:35:13.635Z,88.20
2023-02-14T23:37:42.519Z,88.08
2023-02-14T23:40:12.348Z,88.29
2023-02-14T23:42:41.220Z,88.42
2023-02-14T23:45:29.187Z,88.19
2023-02-14T23:48:05.200Z,88.06
2023-02-14T23:50:33.359Z,88.17
2023-02-14T23:53:02.002Z,88.09
2023-02-14T23:55:32.078Z,88.24
2023-02-14T23:58:01.694Z,88.10
